Time;durP1;ratioP1;P1;durP2;ratioP2;P2;SDS_P1;SDS_P2;PMS_P1;PMS_P2;Temp;Humidity;BMP_temperature;BMP_pressure;BME280_temperature;BME280_humidity;BME280_pressure;Samples;Min_cycle;Max_cycle;Signal;HPM_P1;HPM_P2
2022/11/07 00:02:26;;;;;;;3.20;2.80;;;;;;;;;;5114281;28;20795;-67
2022/11/07 00:04:53;;;;;;;9.90;3.30;;;;;;;;;;5114065;28;20490;-67
2022/11/07 00:07:20;;;;;;;3.30;3.00;;;;;;;;;;5114011;28;20443;-67
2022/11/07 00:09:48;;;;;;;5.73;3.10;;;;;;;;;;5113908;28;20437;-66
2022/11/07 00:12:15;;;;;;;4.90;3.37;;;;;;;;;;5113836;28;20550;-66
2022/11/07 00:14:42;;;;;;;3.77;2.77;;;;;;;;;;5113866;28;20451;-66
2022/11/07 00:17:10;;;;;;;4.80;3.17;;;;;;;;;;5113862;28;20453;-67
2022/11/07 00:19:38;;;;;;;3.30;2.97;;;;;;;;;;5113926;28;20780;-66
2022/11/07 00:22:05;;;;;;;5.87;3.20;;;;;;;;;;5114087;28;20435;-67
2022/11/07 00:24:32;;;;;;;2.83;2.47;;;;;;;;;;5113987;28;20830;-67
2022/11/07 00:26:59;;;;;;;5.80;2.57;;;;;;;;;;5113508;28;20975;-66
2022/11/07 00:29:27;;;;;;;2.87;2.63;;;;;;;;;;5113820;28;20804;-66
2022/11/07 00:31:54;;;;;;;2.80;2.60;;;;;;;;;;5113491;28;20442;-66
2022/11/07 00:34:22;;;;;;;3.10;2.70;;;;;;;;;;5113918;28;20453;-67
2022/11/07 00:36:49;;;;;;;4.03;2.90;;;;;;;;;;5113419;28;20443;-67
2022/11/07 00:39:17;;;;;;;4.73;2.70;;;;;;;;;;5113692;28;20901;-66
2022/11/07 00:41:44;;;;;;;7.37;3.30;;;;;;;;;;5113245;28;20477;-67
2022/11/07 00:44:11;;;;;;;7.43;4.10;;;;;;;;;;5113283;28;20437;-67
2022/11/07 00:46:38;;;;;;;4.90;3.27;;;;;;;;;;5113680;28;20966;-66
2022/11/07 00:49:06;;;;;;;5.60;3.60;;;;;;;;;;5113528;28;20445;-67
2022/11/07 00:51:34;;;;;;;6.47;3.40;;;;;;;;;;5117444;28;20437;-67
2022/11/07 00:54:02;;;;;;;7.80;3.20;;;;;;;;;;5117574;28;20799;-66
2022/11/07 00:56:30;;;;;;;6.77;3.60;;;;;;;;;;5117203;28;20438;-66
2022/11/07 00:58:57;;;;;;;6.93;2.93;;;;;;;;;;5117578;28;20945;-67
2022/11/07 01:01:25;;;;;;;6.03;3.13;;;;;;;;;;5117033;28;20775;-67
2022/11/07 01:06:39;;;;;;;3.63;3.33;;;;;;;;;;5117265;28;20403;-67
2022/11/07 01:09:07;;;;;;;3.30;3.00;;;;;;;;;;5117679;28;20448;-67
2022/11/07 01:11:35;;;;;;;4.00;3.60;;;;;;;;;;5117186;28;20539;-66
2022/11/07 01:14:03;;;;;;;3.73;2.83;;;;;;;;;;5117166;28;20432;-67
2022/11/07 01:16:33;;;;;;;4.43;3.43;;;;;;;;;;5117102;28;20798;-67
2022/11/07 01:19:00;;;;;;;4.87;3.23;;;;;;;;;;5117071;28;20427;-67
2022/11/07 01:21:28;;;;;;;4.70;2.60;;;;;;;;;;5117046;28;20629;-67
2022/11/07 01:23:56;;;;;;;4.90;2.80;;;;;;;;;;5117094;28;20443;-66
2022/11/07 01:26:23;;;;;;;3.33;2.90;;;;;;;;;;5116986;28;20838;-67
2022/11/07 01:28:51;;;;;;;6.40;3.27;;;;;;;;;;5116938;28;20434;-66
2022/11/07 01:31:18;;;;;;;5.53;3.20;;;;;;;;;;5117156;28;20443;-66
2022/11/07 01:33:45;;;;;;;5.03;3.60;;;;;;;;;;5116775;28;20450;-67
2022/11/07 01:36:14;;;;;;;5.63;2.77;;;;;;;;;;5116739;28;20435;-67
2022/11/07 01:38:42;;;;;;;4.00;3.07;;;;;;;;;;5116724;28;20445;-66
2022/11/07 01:41:21;;;;;;;4.47;3.60;;;;;;;;;;5116629;28;20439;-66
2022/11/07 01:43:50;;;;;;;6.30;3.00;;;;;;;;;;5116799;28;20431;-67
2022/11/07 01:46:17;;;;;;;3.40;2.70;;;;;;;;;;5116367;28;20531;-66
2022/11/07 01:48:45;;;;;;;3.43;3.03;;;;;;;;;;5116530;28;20447;-67
2022/11/07 01:51:13;;;;;;;4.23;3.27;;;;;;;;;;5116333;28;20445;-66
2022/11/07 01:53:41;;;;;;;3.53;2.70;;;;;;;;;;5116659;28;20462;-66
2022/11/07 01:56:10;;;;;;;4.50;3.20;;;;;;;;;;5116254;28;20455;-67
2022/11/07 01:58:40;;;;;;;4.10;2.97;;;;;;;;;;5115981;28;20886;-67
2022/11/07 02:01:07;;;;;;;4.43;2.80;;;;;;;;;;5115827;28;20454;-67
2022/11/07 02:03:35;;;;;;;4.23;3.17;;;;;;;;;;5116211;28;20441;-67
2022/11/07 02:06:04;;;;;;;5.10;3.40;;;;;;;;;;5116185;28;20815;-66
2022/11/07 02:08:33;;;;;;;5.90;2.70;;;;;;;;;;5116170;28;20443;-67
2022/11/07 02:11:01;;;;;;;4.10;2.90;;;;;;;;;;5115709;28;20475;-66
2022/11/07 02:13:29;;;;;;;6.10;2.90;;;;;;;;;;5116507;28;20447;-66
2022/11/07 02:15:59;;;;;;;2.90;2.50;;;;;;;;;;5115952;28;20815;-67
2022/11/07 02:18:28;;;;;;;3.40;2.83;;;;;;;;;;5115620;28;20472;-66
2022/11/07 02:20:56;;;;;;;6.17;2.63;;;;;;;;;;5115802;28;20442;-67
2022/11/07 02:23:27;;;;;;;6.13;2.70;;;;;;;;;;5115881;28;20447;-67
2022/11/07 02:25:56;;;;;;;4.70;2.67;;;;;;;;;;5115820;28;20463;-66
2022/11/07 02:28:24;;;;;;;4.60;2.57;;;;;;;;;;5115416;28;20443;-66
2022/11/07 02:30:51;;;;;;;5.90;2.90;;;;;;;;;;5115787;28;20443;-66
2022/11/07 02:33:19;;;;;;;6.27;2.70;;;;;;;;;;5115716;28;20453;-67
2022/11/07 02:35:47;;;;;;;6.63;2.83;;;;;;;;;;5115233;28;20446;-66
2022/11/07 02:38:17;;;;;;;4.97;2.30;;;;;;;;;;5115490;28;20450;-66
2022/11/07 02:40:45;;;;;;;3.40;2.30;;;;;;;;;;5115751;28;20530;-66
2022/11/07 02:43:14;;;;;;;6.63;2.57;;;;;;;;;;5115878;28;20474;-66
2022/11/07 02:45:44;;;;;;;7.53;2.90;;;;;;;;;;5115279;28;20858;-67
2022/11/07 02:48:11;;;;;;;3.50;2.40;;;;;;;;;;5115325;28;20440;-66
2022/11/07 02:50:38;;;;;;;3.03;2.27;;;;;;;;;;5115709;28;20453;-67
2022/11/07 02:53:06;;;;;;;4.70;2.40;;;;;;;;;;5115563;28;20443;-66
2022/11/07 02:55:33;;;;;;;2.47;2.10;;;;;;;;;;5114923;28;20461;-67
2022/11/07 02:58:00;;;;;;;3.87;2.37;;;;;;;;;;5114853;28;20985;-66
2022/11/07 03:00:29;;;;;;;4.37;2.40;;;;;;;;;;5114872;28;20447;-66
2022/11/07 03:02:56;;;;;;;3.30;2.13;;;;;;;;;;5114962;28;20537;-66
2022/11/07 03:05:23;;;;;;;3.90;2.77;;;;;;;;;;5114635;28;21032;-66
2022/11/07 03:07:50;;;;;;;7.23;2.20;;;;;;;;;;5115019;28;20811;-66
2022/11/07 03:10:18;;;;;;;4.13;2.60;;;;;;;;;;5115112;28;20438;-66
2022/11/07 03:12:45;;;;;;;5.90;2.43;;;;;;;;;;5114241;28;20446;-67
2022/11/07 03:15:13;;;;;;;4.90;2.37;;;;;;;;;;5115390;28;20450;-67
2022/11/07 03:17:41;;;;;;;3.40;2.30;;;;;;;;;;5114418;28;20923;-67
2022/11/07 03:20:11;;;;;;;5.77;2.50;;;;;;;;;;5114945;28;20440;-66
2022/11/07 03:22:39;;;;;;;4.73;2.20;;;;;;;;;;5114848;28;20527;-67
2022/11/07 03:25:07;;;;;;;5.77;2.20;;;;;;;;;;5114559;28;20449;-66
2022/11/07 03:27:34;;;;;;;2.93;2.40;;;;;;;;;;5114484;28;20440;-66
2022/11/07 03:30:01;;;;;;;4.30;2.33;;;;;;;;;;5114617;28;20446;-67
2022/11/07 03:32:28;;;;;;;3.30;2.20;;;;;;;;;;5114584;28;20781;-67
2022/11/07 03:34:57;;;;;;;4.97;2.40;;;;;;;;;;5114487;28;20564;-67
2022/11/07 03:37:24;;;;;;;3.97;2.33;;;;;;;;;;5114033;28;20450;-66
2022/11/07 03:39:51;;;;;;;8.00;2.30;;;;;;;;;;5114708;28;20827;-66
2022/11/07 03:42:18;;;;;;;3.27;2.13;;;;;;;;;;5113982;28;20843;-67
2022/11/07 03:44:45;;;;;;;2.17;1.97;;;;;;;;;;5114367;28;20445;-67
2022/11/07 03:47:13;;;;;;;3.73;2.50;;;;;;;;;;5114168;28;20486;-66
2022/11/07 03:49:40;;;;;;;3.57;2.30;;;;;;;;;;5113937;28;20446;-66
2022/11/07 03:52:08;;;;;;;6.17;2.30;;;;;;;;;;5114006;28;20958;-66
2022/11/07 03:54:36;;;;;;;3.40;2.30;;;;;;;;;;5114200;28;20439;-66
2022/11/07 03:57:03;;;;;;;7.80;3.07;;;;;;;;;;5113761;28;20450;-67
2022/11/07 03:59:30;;;;;;;6.17;3.23;;;;;;;;;;5114182;28;20791;-66
2022/11/07 04:01:57;;;;;;;6.83;2.30;;;;;;;;;;5113998;28;20803;-67
2022/11/07 04:04:24;;;;;;;3.80;2.30;;;;;;;;;;5114093;28;20458;-66
2022/11/07 04:06:51;;;;;;;11.03;2.80;;;;;;;;;;5113824;28;20476;-66
2022/11/07 04:09:20;;;;;;;3.40;2.63;;;;;;;;;;5114016;28;20450;-66
2022/11/07 04:17:19;;;;;;;5.20;2.33;;;;;;;;;;5113618;28;20452;-66
2022/11/07 04:19:47;;;;;;;3.10;2.60;;;;;;;;;;5113544;28;20434;-66
2022/11/07 04:22:14;;;;;;;5.83;2.40;;;;;;;;;;5113758;28;20440;-66
2022/11/07 04:24:43;;;;;;;2.30;2.10;;;;;;;;;;5114464;28;20930;-66
2022/11/07 04:29:55;;;;;;;4.83;2.80;;;;;;;;;;5118083;28;20519;-66
2022/11/07 04:32:23;;;;;;;6.30;2.73;;;;;;;;;;5117949;28;20454;-66
2022/11/07 04:34:50;;;;;;;5.90;2.83;;;;;;;;;;5118034;28;20450;-66
2022/11/07 04:37:18;;;;;;;16.43;2.90;;;;;;;;;;5117733;28;20451;-66
2022/11/07 04:39:46;;;;;;;4.50;2.77;;;;;;;;;;5117927;28;20439;-67
2022/11/07 04:42:13;;;;;;;4.60;2.83;;;;;;;;;;5117538;28;20474;-66
2022/11/07 04:44:40;;;;;;;4.50;2.90;;;;;;;;;;5118046;28;20443;-66
2022/11/07 04:47:08;;;;;;;5.53;2.50;;;;;;;;;;5117628;28;20474;-66
2022/11/07 04:49:35;;;;;;;6.53;2.40;;;;;;;;;;5117771;28;20443;-67
2022/11/07 04:52:02;;;;;;;8.40;2.70;;;;;;;;;;5117334;28;20952;-66
2022/11/07 04:54:29;;;;;;;7.13;2.87;;;;;;;;;;5115497;28;20840;-67
2022/11/07 04:56:58;;;;;;;5.47;2.20;;;;;;;;;;5117549;28;20443;-66
2022/11/07 04:59:25;;;;;;;5.27;2.80;;;;;;;;;;5117436;28;20449;-66
2022/11/07 05:01:52;;;;;;;6.83;2.90;;;;;;;;;;5117303;28;20447;-67
2022/11/07 05:04:19;;;;;;;5.93;3.00;;;;;;;;;;5116940;28;20439;-67
2022/11/07 05:06:47;;;;;;;4.90;2.63;;;;;;;;;;5116898;28;20842;-66
2022/11/07 05:09:16;;;;;;;6.10;3.30;;;;;;;;;;5116862;28;20535;-66
2022/11/07 05:11:44;;;;;;;5.00;2.47;;;;;;;;;;5117160;28;20452;-66
2022/11/07 05:14:12;;;;;;;5.83;2.30;;;;;;;;;;5116591;28;20459;-66
2022/11/07 05:16:40;;;;;;;6.00;3.07;;;;;;;;;;5117195;28;20460;-66
2022/11/07 05:19:07;;;;;;;4.10;2.83;;;;;;;;;;5117019;28;20472;-66
2022/11/07 05:21:34;;;;;;;7.00;2.77;;;;;;;;;;5116767;28;20450;-66
2022/11/07 05:24:00;;;;;;;8.13;2.70;;;;;;;;;;5116553;28;20458;-66
2022/11/07 05:26:28;;;;;;;5.57;2.73;;;;;;;;;;5116756;28;20562;-67
2022/11/07 05:28:55;;;;;;;3.47;2.97;;;;;;;;;;5116725;28;20946;-67
2022/11/07 05:31:23;;;;;;;10.53;2.80;;;;;;;;;;5117010;28;20527;-67
2022/11/07 05:33:50;;;;;;;6.90;2.33;;;;;;;;;;5116950;28;20529;-67
2022/11/07 05:36:19;;;;;;;2.67;2.33;;;;;;;;;;5116670;28;20443;-67
2022/11/07 05:38:47;;;;;;;7.60;3.17;;;;;;;;;;5116733;28;20535;-67
2022/11/07 05:41:14;;;;;;;6.13;3.20;;;;;;;;;;5116990;28;20509;-67
2022/11/07 05:43:41;;;;;;;7.90;2.83;;;;;;;;;;5116338;28;20497;-67
2022/11/07 05:46:09;;;;;;;11.93;2.70;;;;;;;;;;5116186;28;20561;-66
2022/11/07 05:48:38;;;;;;;6.97;2.70;;;;;;;;;;5116296;28;20475;-66
2022/11/07 05:51:05;;;;;;;8.93;3.07;;;;;;;;;;5116098;28;20954;-66
2022/11/07 05:53:33;;;;;;;5.63;2.67;;;;;;;;;;5116336;28;20801;-66
2022/11/07 05:56:00;;;;;;;4.07;2.60;;;;;;;;;;5116509;28;20443;-66
2022/11/07 05:58:27;;;;;;;3.20;2.50;;;;;;;;;;5115978;28;20438;-67
2022/11/07 06:00:54;;;;;;;8.07;2.93;;;;;;;;;;5116330;28;20546;-67
2022/11/07 06:03:21;;;;;;;5.80;2.97;;;;;;;;;;5116176;28;20439;-67
2022/11/07 06:05:50;;;;;;;7.20;2.77;;;;;;;;;;5116368;28;20449;-67
2022/11/07 06:08:17;;;;;;;6.87;2.70;;;;;;;;;;5115979;28;20427;-67
2022/11/07 06:10:44;;;;;;;4.67;3.20;;;;;;;;;;5115853;28;20449;-67
2022/11/07 06:13:12;;;;;;;6.77;2.87;;;;;;;;;;5115219;28;20451;-67
2022/11/07 06:15:40;;;;;;;4.03;3.20;;;;;;;;;;5114236;28;20443;-67
2022/11/07 06:18:08;;;;;;;6.20;2.80;;;;;;;;;;5115274;28;20443;-66
2022/11/07 06:20:35;;;;;;;7.93;2.70;;;;;;;;;;5115394;28;20529;-68
2022/11/07 06:23:05;;;;;;;4.43;2.83;;;;;;;;;;5115529;28;20450;-66
2022/11/07 06:25:32;;;;;;;5.07;2.50;;;;;;;;;;5115686;28;20435;-66
2022/11/07 06:28:00;;;;;;;6.47;3.13;;;;;;;;;;5115302;28;20479;-66
2022/11/07 06:30:28;;;;;;;5.50;2.70;;;;;;;;;;5115548;28;20537;-67
2022/11/07 06:32:55;;;;;;;6.20;2.63;;;;;;;;;;5115610;28;20821;-67
2022/11/07 06:35:23;;;;;;;6.30;2.67;;;;;;;;;;5114963;28;20448;-67
2022/11/07 06:37:50;;;;;;;6.70;3.00;;;;;;;;;;5116218;28;20451;-67
2022/11/07 06:40:18;;;;;;;10.00;3.20;;;;;;;;;;5116324;28;20935;-66
2022/11/07 06:42:46;;;;;;;5.10;3.67;;;;;;;;;;5115410;28;21007;-67
2022/11/07 06:45:19;;;;;;;7.93;3.43;;;;;;;;;;5115299;28;20943;-66
2022/11/07 06:47:46;;;;;;;4.70;3.00;;;;;;;;;;5114818;28;20470;-66
2022/11/07 06:50:13;;;;;;;7.33;3.37;;;;;;;;;;5115195;28;20441;-66
2022/11/07 06:52:40;;;;;;;3.37;2.80;;;;;;;;;;5115172;28;20852;-66
2022/11/07 06:55:08;;;;;;;3.77;2.70;;;;;;;;;;5115257;28;20530;-67
2022/11/07 06:57:36;;;;;;;7.07;4.17;;;;;;;;;;5115134;28;20529;-67
2022/11/07 07:00:05;;;;;;;9.03;3.33;;;;;;;;;;5114794;28;20534;-67
2022/11/07 07:02:38;;;;;;;8.43;3.00;;;;;;;;;;5114624;28;20451;-67
2022/11/07 07:05:06;;;;;;;7.30;3.70;;;;;;;;;;5115135;28;20435;-66
2022/11/07 07:07:33;;;;;;;8.50;4.00;;;;;;;;;;5114422;28;20514;-66
2022/11/07 07:10:00;;;;;;;10.00;4.40;;;;;;;;;;5114772;28;20530;-66
2022/11/07 07:12:27;;;;;;;9.00;3.17;;;;;;;;;;5115313;28;20450;-66
2022/11/07 07:14:56;;;;;;;7.73;3.20;;;;;;;;;;5114629;28;20455;-66
2022/11/07 07:17:23;;;;;;;5.23;3.00;;;;;;;;;;5114337;28;20943;-66
2022/11/07 07:19:50;;;;;;;9.73;3.40;;;;;;;;;;5114318;28;20939;-66
2022/11/07 07:22:17;;;;;;;4.87;2.60;;;;;;;;;;5114658;28;20465;-66
2022/11/07 07:24:46;;;;;;;6.33;3.20;;;;;;;;;;5114466;28;20443;-66
2022/11/07 07:27:14;;;;;;;3.47;3.17;;;;;;;;;;5114299;28;20512;-66
2022/11/07 07:29:41;;;;;;;3.93;2.40;;;;;;;;;;5114337;28;20526;-67
2022/11/07 07:32:09;;;;;;;5.73;2.93;;;;;;;;;;5114406;28;20534;-67
2022/11/07 07:34:37;;;;;;;6.53;2.80;;;;;;;;;;5113991;28;20441;-67
2022/11/07 07:37:04;;;;;;;4.93;2.50;;;;;;;;;;5114138;28;20956;-66
2022/11/07 07:39:31;;;;;;;6.53;2.77;;;;;;;;;;5114450;28;20435;-66
2022/11/07 07:41:58;;;;;;;8.83;3.03;;;;;;;;;;5114168;28;20574;-66
2022/11/07 07:44:25;;;;;;;7.80;2.43;;;;;;;;;;5113919;28;20432;-67
2022/11/07 07:46:52;;;;;;;12.27;2.63;;;;;;;;;;5114128;28;20479;-67
2022/11/07 07:49:21;;;;;;;5.87;2.17;;;;;;;;;;5114164;28;20443;-66
2022/11/07 07:51:48;;;;;;;4.90;3.00;;;;;;;;;;5113757;28;20446;-66
2022/11/07 07:54:15;;;;;;;5.93;2.80;;;;;;;;;;5113928;28;20457;-67
2022/11/07 07:56:43;;;;;;;6.50;2.90;;;;;;;;;;5114026;28;20652;-67
2022/11/07 07:59:10;;;;;;;4.37;2.70;;;;;;;;;;5112847;28;20440;-67
2022/11/07 08:01:37;;;;;;;6.30;2.80;;;;;;;;;;5114077;28;21015;-67
2022/11/07 08:04:04;;;;;;;5.77;2.57;;;;;;;;;;5113909;28;20434;-67
2022/11/07 08:06:34;;;;;;;9.13;3.00;;;;;;;;;;5113988;28;20457;-66
2022/11/07 08:09:01;;;;;;;8.87;2.63;;;;;;;;;;5113879;28;20872;-66
2022/11/07 08:11:28;;;;;;;8.57;3.20;;;;;;;;;;5113849;28;20473;-67
2022/11/07 08:13:55;;;;;;;10.17;2.83;;;;;;;;;;5113699;28;20492;-66
2022/11/07 08:16:23;;;;;;;6.27;2.33;;;;;;;;;;5113623;28;20440;-66
2022/11/07 08:18:50;;;;;;;7.10;2.70;;;;;;;;;;5114176;28;20530;-66
2022/11/07 08:21:17;;;;;;;8.00;2.63;;;;;;;;;;5113512;28;20453;-67
2022/11/07 08:23:46;;;;;;;10.10;2.83;;;;;;;;;;5113726;28;20534;-66
2022/11/07 08:26:13;;;;;;;5.63;2.63;;;;;;;;;;5113528;28;20448;-66
2022/11/07 08:28:40;;;;;;;5.70;2.57;;;;;;;;;;5113287;28;20480;-66
2022/11/07 08:31:08;;;;;;;4.77;3.00;;;;;;;;;;5113598;28;21020;-66
2022/11/07 08:33:36;;;;;;;9.70;3.23;;;;;;;;;;5113370;28;20443;-67
2022/11/07 08:36:04;;;;;;;8.20;2.50;;;;;;;;;;5113567;28;20535;-66
2022/11/07 08:38:32;;;;;;;10.17;2.67;;;;;;;;;;5113843;28;20444;-66
2022/11/07 08:41:01;;;;;;;12.13;2.73;;;;;;;;;;5113166;28;20478;-66
2022/11/07 08:43:28;;;;;;;7.43;4.10;;;;;;;;;;5113673;28;20820;-66
2022/11/07 08:45:56;;;;;;;6.83;2.60;;;;;;;;;;5113264;28;20534;-66
2022/11/07 08:48:23;;;;;;;7.37;2.87;;;;;;;;;;5113485;28;20479;-66
2022/11/07 08:50:54;;;;;;;11.23;2.53;;;;;;;;;;5113457;28;20511;-67
2022/11/07 08:53:22;;;;;;;6.10;2.97;;;;;;;;;;5113676;28;20440;-66
2022/11/07 08:55:49;;;;;;;9.60;2.80;;;;;;;;;;5112848;28;20448;-66
2022/11/07 08:58:18;;;;;;;8.40;2.70;;;;;;;;;;5113045;28;20941;-67
2022/11/07 09:00:46;;;;;;;8.10;3.10;;;;;;;;;;5113452;28;20450;-66
2022/11/07 09:03:13;;;;;;;9.17;2.80;;;;;;;;;;5113500;28;20881;-66
2022/11/07 09:05:41;;;;;;;6.43;2.80;;;;;;;;;;5113334;28;20444;-66
2022/11/07 09:08:08;;;;;;;8.00;2.67;;;;;;;;;;5113250;28;20572;-66
2022/11/07 09:10:35;;;;;;;10.43;3.50;;;;;;;;;;5114652;28;20441;-67
2022/11/07 09:13:02;;;;;;;6.47;2.80;;;;;;;;;;5117505;28;20448;-66
2022/11/07 09:15:31;;;;;;;8.20;2.60;;;;;;;;;;5117181;28;20528;-66
2022/11/07 09:18:02;;;;;;;8.20;2.77;;;;;;;;;;5116954;28;20453;-66
2022/11/07 09:20:29;;;;;;;7.60;3.23;;;;;;;;;;5117556;28;20506;-67
2022/11/07 09:22:56;;;;;;;8.13;2.83;;;;;;;;;;5116895;28;20450;-66
2022/11/07 09:25:24;;;;;;;10.73;3.50;;;;;;;;;;5117022;28;20441;-66
2022/11/07 09:27:51;;;;;;;9.67;2.63;;;;;;;;;;5116879;28;20484;-66
2022/11/07 09:30:18;;;;;;;7.67;2.90;;;;;;;;;;5116778;28;20436;-66
2022/11/07 09:32:47;;;;;;;10.80;3.70;;;;;;;;;;5116727;28;20871;-67
2022/11/07 09:35:14;;;;;;;9.93;2.90;;;;;;;;;;5116928;28;20455;-67
2022/11/07 09:37:42;;;;;;;6.53;2.73;;;;;;;;;;5116337;28;20933;-67
2022/11/07 09:40:20;;;;;;;12.67;3.50;;;;;;;;;;5116704;28;20458;-67
2022/11/07 09:42:52;;;;;;;8.00;2.70;;;;;;;;;;5116185;28;20475;-67
2022/11/07 09:45:19;;;;;;;7.47;2.90;;;;;;;;;;5116872;28;20482;-67
2022/11/07 09:47:50;;;;;;;11.27;3.23;;;;;;;;;;5116125;28;20922;-66
2022/11/07 09:50:19;;;;;;;10.07;4.10;;;;;;;;;;5116501;28;20455;-66
2022/11/07 09:52:49;;;;;;;6.87;3.30;;;;;;;;;;5116263;28;20497;-66
2022/11/07 09:55:19;;;;;;;10.30;3.27;;;;;;;;;;5117054;28;20440;-66
2022/11/07 09:57:48;;;;;;;8.03;2.57;;;;;;;;;;5116493;28;20539;-66
2022/11/07 10:00:17;;;;;;;8.43;3.70;;;;;;;;;;5115988;28;20442;-67
2022/11/07 10:02:45;;;;;;;9.63;3.40;;;;;;;;;;5116170;28;20474;-66
2022/11/07 10:05:16;;;;;;;9.07;3.20;;;;;;;;;;5115911;28;20465;-67
2022/11/07 10:07:49;;;;;;;7.13;2.80;;;;;;;;;;5115745;28;20468;-67
2022/11/07 10:10:18;;;;;;;10.23;4.30;;;;;;;;;;5116209;28;20430;-67
2022/11/07 10:12:58;;;;;;;7.80;3.00;;;;;;;;;;5115859;28;20539;-67
2022/11/07 10:15:28;;;;;;;8.80;2.60;;;;;;;;;;5116203;28;20441;-66
2022/11/07 10:17:57;;;;;;;3.97;3.27;;;;;;;;;;5115609;28;20454;-66
2022/11/07 10:20:33;;;;;;;5.33;2.73;;;;;;;;;;5115912;28;20532;-67
2022/11/07 10:23:10;;;;;;;9.23;3.47;;;;;;;;;;5115278;28;20443;-66
2022/11/07 10:25:42;;;;;;;7.27;3.40;;;;;;;;;;5116305;28;20429;-67
2022/11/07 10:28:13;;;;;;;10.33;4.57;;;;;;;;;;5115685;28;20470;-66
2022/11/07 10:30:41;;;;;;;9.07;3.53;;;;;;;;;;5115934;28;20425;-66
2022/11/07 10:33:11;;;;;;;7.57;3.20;;;;;;;;;;5115262;28;20937;-66
2022/11/07 10:35:42;;;;;;;13.17;3.30;;;;;;;;;;5115850;28;20829;-67
2022/11/07 10:38:16;;;;;;;14.17;2.93;;;;;;;;;;5115691;28;20518;-66
2022/11/07 10:40:44;;;;;;;6.77;3.00;;;;;;;;;;5116078;28;20416;-66
2022/11/07 10:43:16;;;;;;;11.20;3.27;;;;;;;;;;5115204;28;20892;-67
2022/11/07 10:45:43;;;;;;;11.17;3.20;;;;;;;;;;5116123;28;20429;-67
2022/11/07 10:48:13;;;;;;;11.90;3.53;;;;;;;;;;5115195;28;20486;-66
2022/11/07 10:50:51;;;;;;;12.27;3.67;;;;;;;;;;5115102;28;20443;-66
2022/11/07 10:53:19;;;;;;;7.73;2.93;;;;;;;;;;5115021;28;20425;-67
2022/11/07 10:55:47;;;;;;;11.03;3.27;;;;;;;;;;5115307;28;20440;-66
2022/11/07 10:58:19;;;;;;;7.00;2.90;;;;;;;;;;5115235;28;20481;-66
2022/11/07 11:00:57;;;;;;;7.87;3.20;;;;;;;;;;5115507;28;20451;-67
2022/11/07 11:03:26;;;;;;;8.30;3.00;;;;;;;;;;5114765;28;20436;-66
2022/11/07 11:05:55;;;;;;;15.20;4.03;;;;;;;;;;5114738;28;20449;-67
2022/11/07 11:08:23;;;;;;;9.80;4.30;;;;;;;;;;5114904;28;20480;-66
2022/11/07 11:10:51;;;;;;;6.43;3.03;;;;;;;;;;5114648;28;20449;-66
2022/11/07 11:13:28;;;;;;;7.40;3.43;;;;;;;;;;5115121;28;20816;-67
2022/11/07 11:15:55;;;;;;;7.83;4.20;;;;;;;;;;5114692;28;20447;-67
2022/11/07 11:18:23;;;;;;;7.50;2.97;;;;;;;;;;5115130;28;20445;-67
2022/11/07 11:20:57;;;;;;;7.07;3.70;;;;;;;;;;5114802;28;20439;-67
2022/11/07 11:23:25;;;;;;;6.63;3.30;;;;;;;;;;5114931;28;20433;-66
2022/11/07 11:25:58;;;;;;;6.47;3.13;;;;;;;;;;5114739;28;20441;-67
2022/11/07 11:28:28;;;;;;;6.80;3.00;;;;;;;;;;5114530;28;20466;-66
2022/11/07 11:30:58;;;;;;;4.90;3.37;;;;;;;;;;5115154;28;20788;-66
2022/11/07 11:33:27;;;;;;;5.97;2.87;;;;;;;;;;5114051;28;20439;-66
2022/11/07 11:35:57;;;;;;;10.03;3.00;;;;;;;;;;5114533;28;20888;-66
2022/11/07 11:38:26;;;;;;;8.50;3.57;;;;;;;;;;5114086;28;20440;-66
2022/11/07 11:40:56;;;;;;;7.30;3.77;;;;;;;;;;5114325;28;20456;-67
2022/11/07 11:43:24;;;;;;;9.33;4.07;;;;;;;;;;5113686;28;20580;-66
2022/11/07 11:45:59;;;;;;;4.03;3.00;;;;;;;;;;5114193;28;20544;-65
2022/11/07 11:48:28;;;;;;;9.90;3.73;;;;;;;;;;5114471;28;20474;-66
2022/11/07 11:50:58;;;;;;;9.00;4.70;;;;;;;;;;5113887;28;20535;-66
2022/11/07 11:53:26;;;;;;;10.70;4.00;;;;;;;;;;5114307;28;20428;-66
2022/11/07 11:55:57;;;;;;;8.20;5.23;;;;;;;;;;5114116;28;20445;-66
2022/11/07 11:58:31;;;;;;;15.27;5.57;;;;;;;;;;5114084;28;20534;-66
2022/11/07 12:01:02;;;;;;;10.60;4.23;;;;;;;;;;5114539;28;20431;-65
2022/11/07 12:03:35;;;;;;;9.53;5.53;;;;;;;;;;5114334;28;20425;-67
2022/11/07 12:06:23;;;;;;;17.10;5.50;;;;;;;;;;5114009;28;20516;-66
2022/11/07 12:09:01;;;;;;;10.60;4.83;;;;;;;;;;5113582;28;20468;-67
2022/11/07 12:11:33;;;;;;;6.23;4.27;;;;;;;;;;5114194;28;20428;-67
2022/11/07 12:14:14;;;;;;;8.87;5.20;;;;;;;;;;5114333;28;20524;-66
2022/11/07 12:16:44;;;;;;;11.27;5.60;;;;;;;;;;5114161;28;20517;-66
2022/11/07 12:19:18;;;;;;;7.93;4.67;;;;;;;;;;5114361;28;20455;-67
2022/11/07 12:21:49;;;;;;;12.60;6.37;;;;;;;;;;5113946;28;20440;-66
2022/11/07 12:24:23;;;;;;;15.93;5.30;;;;;;;;;;5113859;28;20422;-66
2022/11/07 12:26:54;;;;;;;8.73;4.50;;;;;;;;;;5113557;28;20541;-66
2022/11/07 12:29:24;;;;;;;10.07;4.53;;;;;;;;;;5113830;28;20496;-66
2022/11/07 12:32:00;;;;;;;10.67;4.57;;;;;;;;;;5113944;28;20805;-66
2022/11/07 12:34:33;;;;;;;9.57;4.03;;;;;;;;;;5113445;28;20936;-67
2022/11/07 12:37:08;;;;;;;11.33;4.00;;;;;;;;;;5114056;28;20785;-66
2022/11/07 12:39:44;;;;;;;7.93;4.03;;;;;;;;;;5113779;28;20465;-67
2022/11/07 12:42:18;;;;;;;12.37;4.17;;;;;;;;;;5113803;28;20494;-66
2022/11/07 12:44:59;;;;;;;10.73;4.57;;;;;;;;;;5113642;28;20448;-66
2022/11/07 12:47:34;;;;;;;14.10;5.20;;;;;;;;;;5117572;28;20468;-66
2022/11/07 12:50:15;;;;;;;6.87;4.60;;;;;;;;;;5118109;28;20776;-67
2022/11/07 12:52:49;;;;;;;8.30;3.70;;;;;;;;;;5118145;28;20512;-66
2022/11/07 12:55:24;;;;;;;7.27;4.00;;;;;;;;;;5117798;28;20424;-67
2022/11/07 12:57:53;;;;;;;8.67;3.90;;;;;;;;;;5118445;28;20420;-67
2022/11/07 13:00:21;;;;;;;7.60;4.50;;;;;;;;;;5117132;28;20873;-67
2022/11/07 13:02:55;;;;;;;8.17;3.90;;;;;;;;;;5117427;28;20933;-67
2022/11/07 13:05:36;;;;;;;7.47;3.73;;;;;;;;;;5117098;28;20434;-67
2022/11/07 13:08:05;;;;;;;15.43;4.90;;;;;;;;;;5117416;28;20485;-67
2022/11/07 13:10:39;;;;;;;10.07;4.07;;;;;;;;;;5116983;28;20444;-67
2022/11/07 13:13:11;;;;;;;17.20;4.87;;;;;;;;;;5118152;28;20440;-67
2022/11/07 13:15:39;;;;;;;10.90;3.93;;;;;;;;;;5117364;28;20437;-66
2022/11/07 13:18:14;;;;;;;14.63;4.90;;;;;;;;;;5116922;28;20446;-67
2022/11/07 13:20:41;;;;;;;11.07;4.10;;;;;;;;;;5117183;28;20782;-66
2022/11/07 13:23:15;;;;;;;5.30;3.97;;;;;;;;;;5116782;28;20445;-67
2022/11/07 13:25:44;;;;;;;6.77;4.60;;;;;;;;;;5117165;28;20911;-67
2022/11/07 13:28:28;;;;;;;7.80;4.43;;;;;;;;;;5117633;28;20481;-66
2022/11/07 13:30:59;;;;;;;10.70;4.20;;;;;;;;;;5116863;28;20437;-67
2022/11/07 13:33:27;;;;;;;7.63;3.77;;;;;;;;;;5117197;28;20520;-66
2022/11/07 13:35:56;;;;;;;11.70;4.50;;;;;;;;;;5116750;28;20472;-66
2022/11/07 13:38:24;;;;;;;12.40;4.10;;;;;;;;;;5116751;28;20531;-68
2022/11/07 13:40:57;;;;;;;9.27;3.50;;;;;;;;;;5116693;28;20450;-66
2022/11/07 13:43:27;;;;;;;8.97;3.90;;;;;;;;;;5116851;28;20482;-66
2022/11/07 13:45:56;;;;;;;6.90;3.60;;;;;;;;;;5116869;28;20428;-66
2022/11/07 13:48:24;;;;;;;6.60;3.67;;;;;;;;;;5116629;28;20806;-66
2022/11/07 13:50:54;;;;;;;8.27;4.13;;;;;;;;;;5116147;28;20455;-66
2022/11/07 13:53:25;;;;;;;9.50;4.10;;;;;;;;;;5116293;28;20430;-65
2022/11/07 13:56:01;;;;;;;5.83;4.77;;;;;;;;;;5116721;28;20430;-66
2022/11/07 13:58:30;;;;;;;8.33;3.70;;;;;;;;;;5114729;28;20440;-66
2022/11/07 14:01:03;;;;;;;7.70;3.50;;;;;;;;;;5116070;28;20450;-66
2022/11/07 14:03:30;;;;;;;8.67;3.30;;;;;;;;;;5116591;28;20431;-66
2022/11/07 14:05:57;;;;;;;15.67;3.27;;;;;;;;;;5116142;28;20879;-66
2022/11/07 14:08:28;;;;;;;6.47;3.77;;;;;;;;;;5115591;28;20477;-67
2022/11/07 14:10:56;;;;;;;5.60;3.20;;;;;;;;;;5116345;28;20779;-66
2022/11/07 14:13:25;;;;;;;16.80;3.67;;;;;;;;;;5115868;28;20834;-65
2022/11/07 14:15:54;;;;;;;14.63;4.50;;;;;;;;;;5115768;28;20540;-66
2022/11/07 14:18:22;;;;;;;5.10;3.00;;;;;;;;;;5115786;28;20444;-67
2022/11/07 14:20:50;;;;;;;10.20;3.60;;;;;;;;;;5115973;28;20464;-66
2022/11/07 14:23:20;;;;;;;13.50;3.53;;;;;;;;;;5115942;28;20450;-66
2022/11/07 14:25:54;;;;;;;13.10;3.03;;;;;;;;;;5115874;28;20452;-66
2022/11/07 14:28:22;;;;;;;8.50;3.17;;;;;;;;;;5115952;28;20790;-66
2022/11/07 14:30:51;;;;;;;7.60;3.60;;;;;;;;;;5115754;28;20876;-66
2022/11/07 14:33:19;;;;;;;6.87;3.63;;;;;;;;;;5115864;28;20803;-67
2022/11/07 14:35:48;;;;;;;9.50;3.70;;;;;;;;;;5115373;28;20884;-66
2022/11/07 14:38:18;;;;;;;8.87;3.80;;;;;;;;;;5115941;28;20452;-66
2022/11/07 14:40:46;;;;;;;10.00;3.80;;;;;;;;;;5115824;28;20420;-66
2022/11/07 14:43:14;;;;;;;9.63;3.63;;;;;;;;;;5115458;28;20861;-66
2022/11/07 14:45:43;;;;;;;10.20;3.10;;;;;;;;;;5115413;28;20538;-67
2022/11/07 14:48:11;;;;;;;9.13;3.40;;;;;;;;;;5115064;28;20442;-66
2022/11/07 14:50:39;;;;;;;13.43;3.43;;;;;;;;;;5115076;28;20457;-66
2022/11/07 14:53:09;;;;;;;9.97;3.00;;;;;;;;;;5115385;28;20445;-66
2022/11/07 14:55:38;;;;;;;8.57;3.37;;;;;;;;;;5115013;28;20441;-66
2022/11/07 14:58:06;;;;;;;9.43;2.80;;;;;;;;;;5116072;28;20438;-66
2022/11/07 15:00:34;;;;;;;6.17;2.80;;;;;;;;;;5115176;28;20797;-66
2022/11/07 15:03:02;;;;;;;5.73;2.70;;;;;;;;;;5115328;28;20446;-66